Time;durP1;ratioP1;P1;durP2;ratioP2;P2;SDS_P1;SDS_P2;PMS_P1;PMS_P2;Temp;Humidity;BMP_temperature;BMP_pressure;BME280_temperature;BME280_humidity;BME280_pressure;Samples;Min_cycle;Max_cycle;Signal;HPM_P1;HPM_P2
2021/09/29 00:04:50;;;;;;;10.37;5.30;;;;;12.60;101063.00;;;;10479674;28;20194;-77
2021/09/29 00:09:52;;;;;;;12.03;5.53;;;;;12.60;101045.00;;;;10429294;28;20194;-77
2021/09/29 00:14:54;;;;;;;7.83;5.67;;;;;12.60;101038.00;;;;10445046;28;20241;-77
2021/09/29 00:19:56;;;;;;;10.10;5.43;;;;;12.60;101040.00;;;;10446220;28;20186;-78
2021/09/29 00:24:58;;;;;;;8.10;6.23;;;;;12.70;101033.00;;;;10428689;28;20198;-77
2021/09/29 00:30:04;;;;;;;13.87;6.77;;;;;12.70;101035.00;;;;10429071;28;20657;-77
2021/09/29 00:35:08;;;;;;;8.00;5.27;;;;;12.80;101015.00;;;;10445416;28;20264;-77
2021/09/29 00:40:11;;;;;;;10.40;5.27;;;;;12.80;101018.00;;;;10444225;28;20738;-77
2021/09/29 00:45:13;;;;;;;8.93;5.80;;;;;12.90;101005.00;;;;10444247;28;20194;-78
2021/09/29 00:50:15;;;;;;;10.10;5.20;;;;;12.90;101010.00;;;;10444086;28;20194;-77
2021/09/29 00:55:17;;;;;;;9.80;4.80;;;;;13.00;100998.00;;;;10444114;28;20210;-77
2021/09/29 01:00:19;;;;;;;8.47;4.97;;;;;13.00;100993.00;;;;10475579;28;20627;-77
2021/09/29 01:05:21;;;;;;;7.50;4.27;;;;;13.00;100991.00;;;;10484993;28;20194;-77
2021/09/29 01:10:44;;;;;;;10.40;4.80;;;;;13.00;100986.00;;;;10452252;28;20793;-77
2021/09/29 01:15:54;;;;;;;6.83;4.33;;;;;13.00;100973.00;;;;10501258;28;20208;-78
2021/09/29 01:21:00;;;;;;;9.33;3.60;;;;;13.00;100969.00;;;;10467895;28;20197;-77
2021/09/29 01:26:15;;;;;;;6.73;4.00;;;;;13.00;100971.00;;;;10500394;28;20182;-77
2021/09/29 01:31:19;;;;;;;10.03;4.60;;;;;12.90;100977.00;;;;10443592;28;20201;-78
2021/09/29 01:36:22;;;;;;;6.57;3.73;;;;;12.90;100969.00;;;;10409691;28;20217;-78
2021/09/29 01:41:26;;;;;;;8.97;3.57;;;;;12.90;100954.00;;;;10442746;28;20209;-77
2021/09/29 01:46:29;;;;;;;10.67;4.07;;;;;12.90;100946.00;;;;10442348;28;20244;-78
2021/09/29 01:51:33;;;;;;;6.30;3.57;;;;;12.90;100944.00;;;;10409237;28;20669;-78
2021/09/29 01:56:35;;;;;;;7.90;3.57;;;;;12.90;100945.00;;;;10425928;28;20206;-78
2021/09/29 02:01:39;;;;;;;7.77;3.93;;;;;12.90;100923.00;;;;10458653;28;20220;-77
2021/09/29 02:06:51;;;;;;;8.80;3.30;;;;;12.90;100915.00;;;;10442222;28;20269;-77
2021/09/29 02:11:57;;;;;;;5.60;3.23;;;;;12.90;100915.00;;;;10425323;28;20198;-77
2021/09/29 02:16:59;;;;;;;6.57;3.13;;;;;12.90;100916.00;;;;10425055;28;20713;-77
2021/09/29 02:22:02;;;;;;;5.23;2.90;;;;;13.00;100915.00;;;;10441603;28;20203;-77
2021/09/29 02:27:04;;;;;;;7.63;2.80;;;;;13.00;100910.00;;;;10478921;28;20194;-78
2021/09/29 02:32:07;;;;;;;9.37;2.97;;;;;13.20;100917.00;;;;10499886;28;20194;-78
2021/09/29 02:37:10;;;;;;;7.30;2.30;;;;;13.20;100922.00;;;;10516126;28;20213;-77
2021/09/29 02:42:12;;;;;;;3.63;2.17;;;;;13.30;100920.00;;;;10483049;28;20217;-78
2021/09/29 02:47:14;;;;;;;8.30;2.20;;;;;13.30;100922.00;;;;10490068;28;20197;-76
2021/09/29 02:52:16;;;;;;;4.17;2.10;;;;;13.20;100910.00;;;;10470307;28;20263;-77
2021/09/29 02:57:18;;;;;;;6.30;2.03;;;;;13.20;100910.00;;;;10437759;28;20205;-77
2021/09/29 03:02:20;;;;;;;6.80;2.00;;;;;13.20;100908.00;;;;10472378;28;20656;-77
2021/09/29 03:07:22;;;;;;;4.40;2.00;;;;;13.20;100907.00;;;;10489046;28;20189;-77
2021/09/29 03:12:24;;;;;;;9.63;2.60;;;;;13.10;100897.00;;;;10505337;28;20630;-78
2021/09/29 03:17:26;;;;;;;3.63;1.70;;;;;13.10;100897.00;;;;10488428;28;20214;-78
2021/09/29 03:22:28;;;;;;;4.23;1.57;;;;;13.10;100900.00;;;;10472781;28;20204;-78
2021/09/29 03:27:30;;;;;;;3.37;1.80;;;;;13.10;100890.00;;;;10415797;28;20604;-77
2021/09/29 03:32:31;;;;;;;2.77;1.63;;;;;13.10;100894.00;;;;10463537;28;20229;-77
2021/09/29 03:37:33;;;;;;;5.17;1.60;;;;;13.10;100888.00;;;;10429664;28;20214;-77
2021/09/29 03:42:36;;;;;;;6.63;1.50;;;;;13.00;100880.00;;;;10446120;28;20260;-77
2021/09/29 03:47:41;;;;;;;4.80;2.10;;;;;12.90;100864.00;;;;10447659;28;20560;-76
2021/09/29 03:52:43;;;;;;;4.10;1.57;;;;;12.80;100826.00;;;;10449944;28;20205;-77
2021/09/29 03:57:45;;;;;;;3.17;1.43;;;;;12.70;100819.00;;;;10433197;28;20264;-77
2021/09/29 04:02:48;;;;;;;3.63;1.30;;;;;12.60;100806.00;;;;10450642;28;20223;-77
2021/09/29 04:07:50;;;;;;;4.80;1.73;;;;;12.60;100791.00;;;;10453058;28;20174;-78
2021/09/29 04:12:52;;;;;;;4.77;2.10;;;;;12.50;100794.00;;;;10419637;28;20198;-78
2021/09/29 04:17:54;;;;;;;4.63;1.70;;;;;12.50;100792.00;;;;10451843;28;20206;-77
2021/09/29 04:22:56;;;;;;;5.33;1.93;;;;;12.50;100790.00;;;;10418646;28;20206;-78
2021/09/29 04:27:58;;;;;;;6.93;2.17;;;;;12.50;100783.00;;;;10464532;28;20192;-77
2021/09/29 04:33:02;;;;;;;4.00;1.73;;;;;12.50;100785.00;;;;10449624;28;20672;-78
2021/09/29 04:38:05;;;;;;;6.27;2.47;;;;;12.50;100788.00;;;;10425958;28;20214;-78
2021/09/29 04:43:07;;;;;;;7.57;2.00;;;;;12.50;100797.00;;;;10404988;28;20665;-77
2021/09/29 04:48:09;;;;;;;9.23;2.07;;;;;12.50;100797.00;;;;10433265;28;20194;-79
2021/09/29 04:53:11;;;;;;;6.67;1.77;;;;;12.50;100800.00;;;;10434527;28;20199;-79
2021/09/29 04:58:13;;;;;;;6.57;1.70;;;;;12.50;100788.00;;;;10424661;28;20688;-79
2021/09/29 05:03:18;;;;;;;4.10;1.63;;;;;12.50;100799.00;;;;10422019;28;20217;-78
2021/09/29 05:08:24;;;;;;;6.13;1.97;;;;;12.50;100802.00;;;;10424718;28;20264;-78
2021/09/29 05:13:30;;;;;;;7.57;1.57;;;;;12.50;100803.00;;;;10407165;28;20253;-78
2021/09/29 05:18:32;;;;;;;7.33;2.20;;;;;12.50;100810.00;;;;10454628;28;20211;-78
2021/09/29 05:23:34;;;;;;;9.00;1.90;;;;;12.50;100817.00;;;;10404854;28;20222;-77
2021/09/29 05:28:40;;;;;;;8.87;2.00;;;;;12.50;100822.00;;;;10473413;28;20224;-77
2021/09/29 05:33:42;;;;;;;12.70;2.70;;;;;12.50;100834.00;;;;10416778;28;20207;-77
2021/09/29 05:38:44;;;;;;;4.57;2.97;;;;;12.50;100848.00;;;;10438209;28;20203;-77
2021/09/29 05:43:46;;;;;;;12.83;3.60;;;;;12.50;100854.00;;;;10388614;28;20230;-77
2021/09/29 05:48:48;;;;;;;9.73;2.60;;;;;12.50;100854.00;;;;10464304;28;20209;-79
2021/09/29 05:53:50;;;;;;;6.13;3.33;;;;;12.50;100855.00;;;;10414346;28;20210;-77
2021/09/29 05:58:52;;;;;;;5.47;1.93;;;;;12.50;100861.00;;;;10454175;28;20209;-77
2021/09/29 06:03:55;;;;;;;7.13;2.20;;;;;12.50;100874.00;;;;10470969;28;20224;-78
2021/09/29 06:08:57;;;;;;;3.10;1.73;;;;;12.50;100857.00;;;;10445418;28;20679;-78
2021/09/29 06:14:02;;;;;;;4.40;1.73;;;;;12.50;100877.00;;;;10411373;28;20818;-78
2021/09/29 06:19:04;;;;;;;2.40;1.17;;;;;12.50;100880.00;;;;10488395;28;20221;-78
2021/09/29 06:24:06;;;;;;;2.93;1.07;;;;;12.50;100894.00;;;;10485968;28;20189;-78
2021/09/29 06:29:08;;;;;;;1.50;1.17;;;;;12.40;100894.00;;;;10438943;28;20662;-78
2021/09/29 06:34:10;;;;;;;5.43;1.40;;;;;12.30;100901.00;;;;10428625;28;20190;-78
2021/09/29 06:39:12;;;;;;;3.03;0.80;;;;;12.30;100876.00;;;;10461548;28;20221;-78
2021/09/29 06:44:14;;;;;;;2.77;1.10;;;;;12.20;100851.00;;;;10399587;28;20205;-77
2021/09/29 06:49:16;;;;;;;1.27;1.13;;;;;12.20;100859.00;;;;10425201;28;20213;-78
2021/09/29 06:54:18;;;;;;;2.73;1.10;;;;;12.40;100874.00;;;;10429962;28;20198;-78
2021/09/29 06:59:20;;;;;;;3.00;0.90;;;;;12.40;100908.00;;;;10398073;28;20662;-78
2021/09/29 07:04:22;;;;;;;3.90;1.30;;;;;12.40;100912.00;;;;10417393;28;20206;-77
2021/09/29 07:09:24;;;;;;;1.90;0.77;;;;;12.40;100929.00;;;;10444460;28;20196;-78
2021/09/29 07:14:26;;;;;;;9.07;1.10;;;;;12.50;100953.00;;;;10458168;28;20190;-78
2021/09/29 07:19:28;;;;;;;5.03;1.03;;;;;12.50;100974.00;;;;10425718;28;20206;-78
2021/09/29 07:24:30;;;;;;;2.50;1.00;;;;;12.50;100965.00;;;;10429217;28;20191;-78
2021/09/29 07:29:32;;;;;;;2.03;1.27;;;;;12.50;100969.00;;;;10421531;28;20233;-78
2021/09/29 07:34:34;;;;;;;5.10;1.03;;;;;12.50;100977.00;;;;10440061;28;20556;-78
2021/09/29 07:39:36;;;;;;;3.03;1.43;;;;;12.60;100988.00;;;;10382670;28;20313;-78
2021/09/29 07:44:38;;;;;;;4.40;1.60;;;;;12.60;100994.00;;;;10468751;28;20191;-79
2021/09/29 07:49:40;;;;;;;4.10;1.30;;;;;12.80;101004.00;;;;10469243;28;20194;-79
2021/09/29 07:54:41;;;;;;;1.43;0.80;;;;;13.00;101004.00;;;;10453159;28;20193;-79
2021/09/29 07:59:43;;;;;;;4.20;1.00;;;;;13.50;101013.00;;;;10451235;28;20209;-78
2021/09/29 08:04:45;;;;;;;2.27;0.90;;;;;13.70;101027.00;;;;10381041;28;20198;-78
2021/09/29 08:09:47;;;;;;;4.37;1.33;;;;;14.00;101035.00;;;;10429728;28;20201;-78
2021/09/29 08:14:49;;;;;;;3.93;1.13;;;;;14.00;101039.00;;;;10447200;28;20209;-78
2021/09/29 08:19:51;;;;;;;2.07;1.40;;;;;14.10;101038.00;;;;10445519;28;20739;-78
2021/09/29 08:25:00;;;;;;;2.00;1.37;;;;;14.10;101048.00;;;;10419625;28;20201;-77
2021/09/29 08:30:25;;;;;;;3.17;1.10;;;;;14.00;101058.00;;;;10428177;28;20239;-78
2021/09/29 08:35:33;;;;;;;4.50;1.67;;;;;14.10;101060.00;;;;10495629;28;20198;-77
2021/09/29 08:56:21;;;;;;;4.17;2.80;;;;;14.20;101085.00;;;;10447335;28;20214;-77
2021/09/29 09:17:35;;;;;;;3.07;2.70;;;;;15.40;101144.00;;;;10436579;28;20214;-77
2021/09/29 09:22:38;;;;;;;3.33;2.80;;;;;16.10;101146.00;;;;10371833;28;21009;-77
2021/09/29 09:27:46;;;;;;;3.25;2.30;;;;;16.40;101139.00;;;;10429720;28;20213;-77
2021/09/29 09:32:54;;;;;;;6.07;3.80;;;;;16.00;101157.00;;;;10381573;28;20578;-77
2021/09/29 09:37:58;;;;;;;3.57;2.77;;;;;15.60;101160.00;;;;10381450;28;20218;-77
2021/09/29 09:43:02;;;;;;;2.87;2.67;;;;;16.00;101155.00;;;;10383392;28;20743;-77
2021/09/29 09:48:33;;;;;;;5.90;2.57;;;;;16.10;101143.00;;;;10394830;28;20209;-77
2021/09/29 09:53:36;;;;;;;5.03;2.33;;;;;16.30;101148.00;;;;10394898;28;20199;-77
2021/09/29 09:58:49;;;;;;;4.78;2.22;;;;;17.50;101147.00;;;;10397446;28;20692;-77
2021/09/29 10:03:52;;;;;;;1.70;1.60;;;;;17.90;101139.00;;;;10436080;28;20194;-77
2021/09/29 10:08:58;;;;;;;2.72;1.52;;;;;19.10;101137.00;;;;10421181;28;20198;-77
2021/09/29 10:30:30;;;;;;;2.88;1.60;;;;;19.50;101150.00;;;;10427252;28;20221;-78
2021/09/29 10:46:19;;;;;;;7.47;1.40;;;;;18.20;101229.00;;;;10432025;28;20182;-79
2021/09/29 11:28:46;;;;;;;2.47;1.10;;;;;13.60;101291.00;;;;10480941;28;20193;-79
2021/09/29 11:34:11;;;;;;;4.37;1.40;;;;;13.30;101301.00;;;;10455297;28;20199;-79
2021/09/29 12:11:10;;;;;;;3.25;1.10;;;;;17.80;101309.00;;;;10435804;28;20219;-79
2021/09/29 12:16:32;;;;;;;2.92;0.98;;;;;18.00;101305.00;;;;10421492;28;20214;-78
2021/09/29 12:21:42;;;;;;;1.05;0.80;;;;;18.10;101320.00;;;;10425968;28;20208;-79
2021/09/29 12:26:53;;;;;;;3.55;0.70;;;;;18.20;101332.00;;;;10458691;28;20268;-79
2021/09/29 12:32:05;;;;;;;5.50;1.05;;;;;18.20;101308.00;;;;10418005;28;20194;-80
2021/09/29 12:37:09;;;;;;;5.50;1.00;;;;;18.40;101326.00;;;;10436240;28;20304;-79
2021/09/29 12:42:11;;;;;;;2.80;0.77;;;;;19.10;101324.00;;;;10445202;28;20222;-79
2021/09/29 12:52:28;;;;;;;2.90;0.85;;;;;16.70;101364.00;;;;10420997;28;20673;-79
2021/09/29 12:57:31;;;;;;;6.72;1.10;;;;;16.30;101363.00;;;;10446226;28;20202;-79
2021/09/29 13:02:33;;;;;;;2.13;0.70;;;;;17.20;101362.00;;;;10410394;28;20198;-79
2021/09/29 13:07:37;;;;;;;2.50;0.50;;;;;18.10;101366.00;;;;10461863;28;20592;-79
2021/09/29 13:12:39;;;;;;;0.80;0.63;;;;;18.50;101377.00;;;;10427691;28;21006;-79
2021/09/29 13:17:41;;;;;;;2.88;0.60;;;;;17.30;101380.00;;;;10434349;28;20203;-78
2021/09/29 13:22:47;;;;;;;1.23;0.60;;;;;17.20;101390.00;;;;10428291;28;20194;-79
2021/09/29 13:38:32;;;;;;;2.92;0.50;;;;;17.00;101407.00;;;;10416839;28;20733;-79
2021/09/29 13:43:34;;;;;;;0.85;0.40;;;;;17.40;101410.00;;;;10403021;28;20218;-78
2021/09/29 13:48:37;;;;;;;2.45;0.82;;;;;18.00;101419.00;;;;10432670;28;20217;-79
2021/09/29 13:53:39;;;;;;;0.82;0.60;;;;;18.20;101426.00;;;;10456993;28;20247;-79
2021/09/29 13:59:01;;;;;;;0.93;0.40;;;;;17.80;101434.00;;;;10436587;28;20222;-79
2021/09/29 14:30:59;;;;;;;2.38;0.73;;;;;15.80;101465.00;;;;10436345;28;20224;-79
2021/09/29 14:36:02;;;;;;;2.75;0.77;;;;;15.60;101482.00;;;;10463649;28;20712;-80
2021/09/29 14:41:04;;;;;;;2.13;0.73;;;;;15.50;101478.00;;;;10411067;28;20256;-80
2021/09/29 14:46:07;;;;;;;3.33;0.60;;;;;15.50;101479.00;;;;10467264;28;20186;-79
2021/09/29 14:51:10;;;;;;;1.85;0.80;;;;;15.30;101480.00;;;;10464713;28;20206;-79
2021/09/29 14:56:19;;;;;;;4.93;1.10;;;;;15.10;101493.00;;;;10427382;28;20245;-79
2021/09/29 15:01:24;;;;;;;2.23;0.67;;;;;15.10;101499.00;;;;10450938;28;20230;-79
2021/09/29 15:06:26;;;;;;;2.77;0.80;;;;;15.40;101513.00;;;;10471097;28;20186;-80
2021/09/29 15:11:28;;;;;;;2.73;1.00;;;;;15.20;101513.00;;;;10433878;28;20279;-80
2021/09/29 15:16:34;;;;;;;5.10;0.90;;;;;15.00;101530.00;;;;10478602;28;20256;-80
2021/09/29 15:21:45;;;;;;;1.93;0.80;;;;;15.10;101531.00;;;;10497369;28;20194;-80
2021/09/29 15:32:06;;;;;;;1.63;0.80;;;;;15.30;101535.00;;;;10422939;28;20255;-80
2021/09/29 15:48:05;;;;;;;3.23;0.90;;;;;15.50;101558.00;;;;10455539;28;20270;-79
2021/09/29 15:53:39;;;;;;;2.50;0.90;;;;;15.00;101568.00;;;;10441433;28;20197;-79
2021/09/29 15:59:00;;;;;;;2.90;0.70;;;;;14.60;101566.00;;;;10445489;28;20210;-80
2021/09/29 16:09:52;;;;;;;3.10;0.83;;;;;14.10;101594.00;;;;10469848;28;20186;-80
2021/09/29 16:35:56;;;;;;;4.37;1.37;;;;;13.10;101673.00;;;;10465412;28;20190;-80
2021/09/29 16:40:58;;;;;;;1.67;0.90;;;;;12.90;101682.00;;;;10460943;28;20229;-78
2021/09/29 16:46:32;;;;;;;1.60;0.87;;;;;12.30;101684.00;;;;10467842;28;20174;-78
2021/09/29 16:51:48;;;;;;;1.40;0.70;;;;;11.90;101698.00;;;;10447217;28;20566;-79
2021/09/29 16:56:50;;;;;;;6.07;0.97;;;;;12.00;101704.00;;;;10452688;28;20673;-79
2021/09/29 17:01:57;;;;;;;4.17;0.93;;;;;11.80;101710.00;;;;10428898;28;20194;-79
2021/09/29 17:06:59;;;;;;;2.70;1.43;;;;;11.70;101716.00;;;;10429862;28;20193;-79
2021/09/29 17:12:02;;;;;;;2.77;0.80;;;;;11.60;101718.00;;;;10446120;28;20202;-78
2021/09/29 17:17:04;;;;;;;2.40;0.90;;;;;11.50;101725.00;;;;10428719;28;20210;-79
2021/09/29 17:22:08;;;;;;;2.30;1.10;;;;;11.40;101737.00;;;;10412481;28;20202;-79
2021/09/29 17:27:12;;;;;;;2.93;0.87;;;;;11.30;101732.00;;;;10428810;28;20195;-78
2021/09/29 17:32:26;;;;;;;4.73;0.93;;;;;11.30;101748.00;;;;10428552;28;20654;-79
2021/09/29 17:48:05;;;;;;;5.07;0.80;;;;;11.20;101760.00;;;;10428269;28;20218;-78
2021/09/29 17:53:31;;;;;;;1.70;0.87;;;;;11.10;101770.00;;;;10461866;28;20252;-78
2021/09/29 17:58:33;;;;;;;1.47;0.77;;;;;11.10;101776.00;;;;10461425;28;20213;-79
2021/09/29 18:03:54;;;;;;;2.30;0.60;;;;;11.00;101778.00;;;;10468939;28;20238;-79
2021/09/29 18:08:57;;;;;;;1.97;0.70;;;;;10.90;101777.00;;;;10468924;28;20193;-78
2021/09/29 18:13:59;;;;;;;9.47;1.00;;;;;10.90;101783.00;;;;10486468;28;20665;-79
2021/09/29 18:19:20;;;;;;;1.43;0.87;;;;;10.90;101799.00;;;;10502356;28;20225;-79
2021/09/29 18:24:23;;;;;;;1.97;0.80;;;;;10.80;101807.00;;;;10484927;28;20193;-80
2021/09/29 18:29:24;;;;;;;2.97;0.80;;;;;10.70;101817.00;;;;10424463;28;20308;-79
2021/09/29 18:34:28;;;;;;;1.93;0.80;;;;;10.70;101815.00;;;;10460031;28;20209;-79
2021/09/29 18:39:33;;;;;;;1.00;0.93;;;;;10.60;101820.00;;;;10455034;28;20218;-79
2021/09/29 18:44:39;;;;;;;2.10;1.07;;;;;10.60;101822.00;;;;10385588;28;20191;-79
2021/09/29 18:49:47;;;;;;;4.33;1.07;;;;;10.70;101829.00;;;;10435862;28;20247;-79
2021/09/29 19:10:53;;;;;;;2.43;1.20;;;;;10.60;101860.00;;;;10484333;28;20189;-79
2021/09/29 19:15:56;;;;;;;3.70;1.40;;;;;10.80;101874.00;;;;10500277;28;20229;-79
2021/09/29 19:20:58;;;;;;;2.83;1.17;;;;;10.80;101877.00;;;;10467010;28;20255;-79
2021/09/29 19:26:00;;;;;;;4.00;1.53;;;;;10.80;101864.00;;;;10503523;28;20197;-79
2021/09/29 19:31:04;;;;;;;4.90;1.20;;;;;10.70;101878.00;;;;10437718;28;20194;-80
2021/09/29 19:36:06;;;;;;;4.23;1.73;;;;;10.70;101879.00;;;;10417169;28;20198;-79
2021/09/29 19:41:08;;;;;;;4.03;1.53;;;;;10.70;101884.00;;;;10430376;28;20248;-80
2021/09/29 19:46:16;;;;;;;4.30;1.40;;;;;10.60;101881.00;;;;10425073;28;20206;-79
2021/09/29 20:12:31;;;;;;;4.13;1.33;;;;;11.00;101904.00;;;;10424908;28;20245;-81
2021/09/29 20:17:33;;;;;;;5.33;1.47;;;;;10.90;101914.00;;;;10425242;28;20649;-80
2021/09/29 20:22:40;;;;;;;5.50;1.90;;;;;10.80;101925.00;;;;10408056;28;20199;-80
2021/09/29 20:27:42;;;;;;;5.43;1.63;;;;;10.80;101933.00;;;;10411338;28;20199;-79
2021/09/29 20:32:49;;;;;;;6.83;1.57;;;;;10.80;101928.00;;;;10506988;28;20220;-80
2021/09/29 20:43:12;;;;;;;1.67;0.93;;;;;11.00;101966.00;;;;10489693;28;20209;-79
2021/09/29 20:48:14;;;;;;;6.53;1.13;;;;;10.90;101943.00;;;;10475535;28;20629;-80
2021/09/29 20:53:16;;;;;;;0.87;0.73;;;;;10.40;101973.00;;;;10456190;28;20221;-80
2021/09/29 20:58:19;;;;;;;3.57;1.17;;;;;10.30;101953.00;;;;10523249;28;20209;-79
2021/09/29 21:03:22;;;;;;;3.60;1.03;;;;;10.30;101948.00;;;;10471488;28;20649;-79
2021/09/29 21:08:43;;;;;;;2.43;1.40;;;;;10.30;101942.00;;;;10472318;28;20232;-80
2021/09/29 21:13:53;;;;;;;2.97;1.40;;;;;10.20;101946.00;;;;10455413;28;20216;-79
2021/09/29 21:18:55;;;;;;;3.27;1.23;;;;;10.10;101946.00;;;;10488296;28;20233;-80
2021/09/29 21:23:57;;;;;;;2.87;1.30;;;;;10.00;101952.00;;;;10439084;28;20232;-79
2021/09/29 21:29:00;;;;;;;4.10;1.77;;;;;9.80;101947.00;;;;10488014;28;20284;-79
2021/09/29 21:34:03;;;;;;;4.40;1.70;;;;;9.70;101949.00;;;;10465194;28;20197;-80
2021/09/29 21:39:58;;;;;;;3.67;1.27;;;;;9.50;101953.00;;;;10430550;28;20225;-80
2021/09/29 22:16:29;;;;;;;4.50;1.67;;;;;9.20;101975.00;;;;10461632;28;20205;-79
2021/09/29 22:43:13;;;;;;;5.73;1.60;;;;;9.30;101990.00;;;;10443891;28;20221;-79
2021/09/29 23:09:45;;;;;;;5.43;1.67;;;;;9.30;102006.00;;;;10417675;28;20201;-79
2021/09/29 23:36:11;;;;;;;4.03;1.57;;;;;9.00;102013.00;;;;10398512;28;20569;-79
2021/09/29 23:41:13;;;;;;;5.03;1.60;;;;;9.00;102020.00;;;;10424477;28;20215;-80
2021/09/29 23:46:16;;;;;;;3.13;1.40;;;;;8.90;102025.00;;;;10441366;28;20202;-79
2021/09/29 23:51:18;;;;;;;4.23;1.73;;;;;8.90;102027.00;;;;10424348;28;20609;-79
2021/09/29 23:56:20;;;;;;;3.60;1.50;;;;;8.90;102019.00;;;;10424094;28;20192;-79
